Time;durP1;ratioP1;P1;durP2;ratioP2;P2;SDS_P1;SDS_P2;PMS_P1;PMS_P2;Temp;Humidity;BMP_temperature;BMP_pressure;BME280_temperature;BME280_humidity;BME280_pressure;Samples;Min_cycle;Max_cycle;Signal;HPM_P1;HPM_P2
2023/12/21 21:39:03;;;;;;;;;;;;;;;8.54;76.87;98439.22;1051435;54;52288;-81
2023/12/21 21:40:05;;;;;;;;;;;;;;;8.64;76.74;98443.53;1088700;46;965;-80
2023/12/21 21:41:16;;;;;;;;;;;;;;;8.67;76.75;98438.69;1088733;54;889;-81
2023/12/21 21:42:17;;;;;;;;;;;;;;;8.56;76.86;98423.91;1088595;54;934;-82
2023/12/21 21:43:20;;;;;;;;;;;;;;;8.69;76.47;98433.19;1088582;47;1010;-80
2023/12/21 21:44:30;;;;;;;;;;;;;;;8.71;76.43;98420.50;1088740;54;1048;-83
2023/12/21 21:45:34;;;;;;;;;;;;;;;8.81;76.06;98407.81;1088710;46;946;-82
2023/12/21 21:46:37;;;;;;;;;;;;;;;8.68;76.88;98415.56;1088695;54;1008;-82
2023/12/21 21:47:41;;;;;;;;;;;;;;;8.64;76.80;98435.53;1088559;46;880;-83
2023/12/21 21:48:42;;;;;;;;;;;;;;;8.70;76.62;98441.00;1088521;47;1202;-82
2023/12/21 21:49:42;;;;;;;;;;;;;;;8.71;76.74;98425.84;1088432;47;987;-81
2023/12/21 21:50:46;;;;;;;;;;;;;;;8.74;76.48;98409.53;1088498;54;1016;-82
2023/12/21 21:51:49;;;;;;;;;;;;;;;8.71;76.86;98401.88;1088542;54;905;-81
2023/12/21 21:52:53;;;;;;;;;;;;;;;8.52;77.48;98392.47;1088471;47;955;-81
2023/12/21 21:53:55;;;;;;;;;;;;;;;8.51;77.53;98378.28;1088422;54;943;-82
2023/12/21 21:55:02;;;;;;;;;;;;;;;8.58;77.59;98371.31;1088576;46;981;-82
2023/12/21 21:56:04;;;;;;;;;;;;;;;8.44;77.99;98366.66;1088496;47;984;-81
2023/12/21 21:57:09;;;;;;;;;;;;;;;8.48;77.89;98360.03;1088625;47;884;-82
2023/12/21 21:58:10;;;;;;;;;;;;;;;8.57;77.49;98366.13;1088431;47;1380;-82
2023/12/21 21:59:14;;;;;;;;;;;;;;;8.57;77.78;98372.31;1088457;54;1063;-82
2023/12/21 22:00:15;;;;;;;;;;;;;;;8.64;77.39;98372.44;1088571;54;1008;-83
2023/12/21 22:01:19;;;;;;;;;;;;;;;8.66;77.40;98374.94;1088469;46;954;-82
2023/12/21 22:02:19;;;;;;;;;;;;;;;8.78;77.36;98383.34;1088471;54;964;-82
2023/12/21 22:03:23;;;;;;;;;;;;;;;8.83;76.93;98375.69;1088562;54;1003;-81
2023/12/21 22:04:24;;;;;;;;;;;;;;;8.88;76.73;98384.78;1088465;54;994;-82
2023/12/21 22:06:58;;;;;;;;;;;;;;;8.93;76.51;98396.78;1088469;47;1853;-82
2023/12/21 22:07:59;;;;;;;;;;;;;;;8.84;77.34;98383.50;1088388;54;1290;-82
2023/12/21 22:09:00;;;;;;;;;;;;;;;8.84;77.26;98374.66;1088454;54;1063;-82
2023/12/21 22:10:08;;;;;;;;;;;;;;;8.78;77.74;98367.38;1088555;54;1089;-82
2023/12/21 22:11:23;;;;;;;;;;;;;;;8.84;77.31;98379.97;1088456;54;1006;-82
2023/12/21 22:12:27;;;;;;;;;;;;;;;8.67;78.18;98412.03;1088594;54;1007;-81
2023/12/21 22:13:29;;;;;;;;;;;;;;;8.58;78.11;98466.34;1088475;47;934;-81
2023/12/21 22:14:32;;;;;;;;;;;;;;;8.62;78.18;98485.47;1088515;54;930;-81
2023/12/21 22:15:34;;;;;;;;;;;;;;;8.64;77.91;98479.00;1088513;54;998;-81
2023/12/21 22:16:37;;;;;;;;;;;;;;;8.62;77.64;98490.81;1088370;47;924;-80
2023/12/21 22:17:46;;;;;;;;;;;;;;;8.46;76.33;98465.00;1088409;54;1025;-81
2023/12/21 22:18:49;;;;;;;;;;;;;;;8.21;75.01;98481.03;1088431;47;1408;-81
2023/12/21 22:20:03;;;;;;;;;;;;;;;8.17;75.22;98488.53;1088515;47;881;-82
2023/12/21 22:21:07;;;;;;;;;;;;;;;8.18;74.78;98497.31;1088483;54;963;-81
2023/12/21 22:22:08;;;;;;;;;;;;;;;7.93;75.42;98518.63;1088586;54;934;-81
2023/12/21 22:23:09;;;;;;;;;;;;;;;7.86;76.05;98523.75;1088605;54;1009;-81
2023/12/21 22:24:13;;;;;;;;;;;;;;;7.79;75.97;98552.84;1088612;54;1023;-82
2023/12/21 22:25:17;;;;;;;;;;;;;;;7.59;76.95;98565.63;1088564;54;993;-82
2023/12/21 22:26:22;;;;;;;;;;;;;;;7.69;76.58;98576.13;1088451;47;1001;-82
2023/12/21 22:27:23;;;;;;;;;;;;;;;7.60;76.88;98561.97;1088490;54;1865;-81
2023/12/21 22:28:27;;;;;;;;;;;;;;;7.51;77.50;98539.00;1088483;54;1316;-81
2023/12/21 22:29:27;;;;;;;;;;;;;;;7.52;77.44;98538.00;1088462;54;1024;-81
2023/12/21 22:30:31;;;;;;;;;;;;;;;7.48;77.96;98536.66;1088298;54;923;-80
2023/12/21 22:31:34;;;;;;;;;;;;;;;7.53;77.78;98550.31;1088429;54;939;-81
2023/12/21 22:32:35;;;;;;;;;;;;;;;7.47;78.17;98542.97;1088541;54;942;-82
2023/12/21 22:33:39;;;;;;;;;;;;;;;7.46;78.34;98559.94;1088614;54;896;-82
2023/12/21 22:34:41;;;;;;;;;;;;;;;7.55;78.21;98564.28;1088538;54;971;-81
2023/12/21 22:35:45;;;;;;;;;;;;;;;7.56;78.19;98563.25;1088135;54;931;-81
2023/12/21 22:36:53;;;;;;;;;;;;;;;7.52;78.02;98561.94;1088502;47;935;-79
2023/12/21 22:37:59;;;;;;;;;;;;;;;7.60;78.22;98563.81;1088373;54;1374;-82
2023/12/21 22:39:00;;;;;;;;;;;;;;;7.65;77.75;98570.28;1088604;46;1001;-81
2023/12/21 22:40:00;;;;;;;;;;;;;;;7.65;77.93;98558.81;1088600;54;918;-81
2023/12/21 22:41:07;;;;;;;;;;;;;;;7.65;77.55;98543.69;1088459;47;872;-80
2023/12/21 22:42:15;;;;;;;;;;;;;;;7.60;77.81;98558.47;1088523;54;982;-81
2023/12/21 22:43:18;;;;;;;;;;;;;;;7.59;77.96;98570.94;1088477;54;985;-81
2023/12/21 22:44:24;;;;;;;;;;;;;;;7.62;77.78;98565.31;1088524;54;944;-80
2023/12/21 22:45:28;;;;;;;;;;;;;;;7.65;77.61;98559.63;1088564;54;972;-82
2023/12/21 22:46:29;;;;;;;;;;;;;;;7.67;77.71;98567.47;1088590;54;972;-81
2023/12/21 22:47:32;;;;;;;;;;;;;;;7.65;77.85;98567.63;1088507;47;1846;-80
2023/12/21 22:48:43;;;;;;;;;;;;;;;7.69;77.79;98559.31;1088411;54;1355;-82
2023/12/21 22:49:46;;;;;;;;;;;;;;;7.65;77.84;98562.28;1088564;47;918;-81
2023/12/21 22:50:47;;;;;;;;;;;;;;;7.70;78.08;98551.16;1088653;54;1003;-81
2023/12/21 22:51:51;;;;;;;;;;;;;;;7.69;77.70;98559.31;1088700;46;975;-80
2023/12/21 22:52:57;;;;;;;;;;;;;;;7.50;78.40;98558.59;1088495;54;923;-80
2023/12/21 22:54:11;;;;;;;;;;;;;;;7.52;78.14;98569.91;1088410;54;1027;-81
2023/12/21 22:55:15;;;;;;;;;;;;;;;7.45;78.59;98567.06;1088553;54;876;-80
2023/12/21 22:56:30;;;;;;;;;;;;;;;7.52;78.51;98569.91;1088473;47;918;-80
2023/12/21 22:57:32;;;;;;;;;;;;;;;7.37;78.24;98572.34;1088608;54;971;-80
2023/12/21 22:58:39;;;;;;;;;;;;;;;7.48;78.22;98573.88;1088455;54;1428;-79
2023/12/21 22:59:43;;;;;;;;;;;;;;;7.52;77.60;98569.91;1088645;54;925;-81
2023/12/21 23:00:44;;;;;;;;;;;;;;;7.64;77.37;98562.47;1088564;47;1004;-80
2023/12/21 23:01:48;;;;;;;;;;;;;;;7.50;77.61;98566.59;1088437;47;917;-80
2023/12/21 23:02:49;;;;;;;;;;;;;;;7.54;77.46;98562.63;1088539;46;966;-80
2023/12/21 23:03:52;;;;;;;;;;;;;;;7.56;77.20;98541.16;1088491;54;900;-81
2023/12/21 23:04:56;;;;;;;;;;;;;;;7.59;77.14;98539.00;1088541;46;961;-80
2023/12/21 23:06:07;;;;;;;;;;;;;;;7.66;76.71;98541.88;1088489;47;852;-81
2023/12/21 23:07:08;;;;;;;;;;;;;;;7.56;76.82;98557.94;1088376;54;1864;-82
2023/12/21 23:08:14;;;;;;;;;;;;;;;7.69;76.14;98568.16;1088318;47;1297;-79
2023/12/21 23:09:15;;;;;;;;;;;;;;;7.64;76.65;98575.75;1088533;54;1006;-79
2023/12/21 23:10:19;;;;;;;;;;;;;;;7.68;76.08;98568.28;1088570;54;937;-80
2023/12/21 23:11:20;;;;;;;;;;;;;;;7.65;76.12;98564.97;1088400;47;986;-80
2023/12/21 23:12:26;;;;;;;;;;;;;;;7.64;76.37;98563.31;1088555;54;993;-80
2023/12/21 23:13:28;;;;;;;;;;;;;;;7.73;75.89;98560.69;1088552;54;1079;-81
2023/12/21 23:14:32;;;;;;;;;;;;;;;7.82;75.59;98562.34;1088387;54;935;-80
2023/12/21 23:15:35;;;;;;;;;;;;;;;7.85;75.40;98558.53;1088413;47;990;-80
2023/12/21 23:16:48;;;;;;;;;;;;;;;7.90;75.35;98551.72;1088434;47;947;-81
2023/12/21 23:17:48;;;;;;;;;;;;;;;7.81;75.09;98555.38;1088619;46;960;-81
2023/12/21 23:19:01;;;;;;;;;;;;;;;7.75;75.59;98574.63;1088404;54;1429;-81
2023/12/21 23:20:06;;;;;;;;;;;;;;;7.86;75.27;98574.31;1088276;54;963;-79
2023/12/21 23:21:09;;;;;;;;;;;;;;;7.83;75.33;98560.50;1088475;47;918;-82
2023/12/21 23:22:10;;;;;;;;;;;;;;;7.81;75.26;98566.00;1088511;47;920;-80
2023/12/21 23:23:11;;;;;;;;;;;;;;;7.74;75.55;98570.31;1088592;54;1002;-81
2023/12/21 23:24:15;;;;;;;;;;;;;;;7.64;75.67;98565.97;1088433;47;1044;-81
2023/12/21 23:25:23;;;;;;;;;;;;;;;7.65;75.68;98564.13;1088520;54;994;-80
2023/12/21 23:26:27;;;;;;;;;;;;;;;7.68;75.45;98558.50;1088523;54;989;-81
2023/12/21 23:27:31;;;;;;;;;;;;;;;7.68;75.33;98563.81;1088480;54;1852;-81
2023/12/21 23:28:34;;;;;;;;;;;;;;;7.72;75.55;98569.66;1088474;54;1331;-81
2023/12/21 23:29:36;;;;;;;;;;;;;;;7.77;75.82;98583.28;1088461;47;948;-81
2023/12/21 23:30:39;;;;;;;;;;;;;;;7.79;75.59;98562.66;1088420;47;977;-81
2023/12/21 23:31:40;;;;;;;;;;;;;;;7.76;75.69;98573.63;1088469;54;936;-80
2023/12/21 23:32:41;;;;;;;;;;;;;;;7.80;75.58;98609.56;1088497;54;968;-82
2023/12/21 23:33:47;;;;;;;;;;;;;;;7.80;75.52;98602.41;1088389;47;940;-80
2023/12/21 23:34:48;;;;;;;;;;;;;;;7.68;75.23;98558.50;1088522;54;1014;-81
2023/12/21 23:35:52;;;;;;;;;;;;;;;7.79;75.19;98544.03;1088543;47;925;-80
2023/12/21 23:37:03;;;;;;;;;;;;;;;7.80;75.15;98535.06;1088292;54;986;-80
2023/12/21 23:40:54;;;;;;;;;;;;;;;7.61;75.19;98598.22;1087140;54;1178;-78
2023/12/21 23:48:38;;;;;;;;;;;;;;;7.30;74.39;98596.09;1087827;47;1856;-78
2023/12/21 23:52:55;;;;;;;;;;;;;;;7.07;74.84;98590.50;1088209;47;1005;-82
2023/12/21 23:53:55;;;;;;;;;;;;;;;7.23;74.58;98597.72;1088114;54;986;-81
2023/12/21 23:54:59;;;;;;;;;;;;;;;7.17;74.31;98601.84;1088188;54;1156;-81
2023/12/21 23:57:45;;;;;;;;;;;;;;;7.28;74.48;98621.16;1087901;47;914;-79
2023/12/21 23:58:56;;;;;;;;;;;;;;;7.16;74.71;98594.84;1087753;54;1218;-80
2023/12/21 23:59:59;;;;;;;;;;;;;;;7.28;74.33;98599.91;1088091;54;923;-80
